createdAt,value
2019-05-21T00:00:29.220Z,33.57
2019-05-21T00:01:05.149Z,15.03
2019-05-21T00:01:41.059Z,20.77
2019-05-21T00:02:16.964Z,19.17
2019-05-21T00:02:52.881Z,39.57
2019-05-21T00:03:28.690Z,16.47
2019-05-21T00:04:04.557Z,15.73
2019-05-21T00:04:40.426Z,12.37
2019-05-21T00:05:16.330Z,16.33
2019-05-21T00:05:52.212Z,19.87
2019-05-21T00:06:28.113Z,27.13
2019-05-21T00:07:03.951Z,35.43
2019-05-21T00:07:39.922Z,18.13
2019-05-21T00:08:15.763Z,24.10
2019-05-21T00:08:51.630Z,23.77
2019-05-21T00:09:27.493Z,15.63
2019-05-21T00:10:03.412Z,18.97
2019-05-21T00:10:39.421Z,23.17
2019-05-21T00:11:15.296Z,13.93
2019-05-21T00:11:51.182Z,12.00
2019-05-21T00:12:27.037Z,16.50
2019-05-21T00:13:02.998Z,26.63
2019-05-21T00:13:38.920Z,15.60
2019-05-21T00:14:14.806Z,12.47
2019-05-21T00:14:50.690Z,14.17
2019-05-21T00:15:26.699Z,24.93
2019-05-21T00:16:02.574Z,15.03
2019-05-21T00:16:38.662Z,20.40
2019-05-21T00:17:14.608Z,15.33
2019-05-21T00:17:52.093Z,17.23
2019-05-21T00:18:28.099Z,19.70
2019-05-21T00:19:04.007Z,13.73
2019-05-21T00:19:39.921Z,19.17
2019-05-21T00:20:16.260Z,15.13
2019-05-21T00:20:52.181Z,15.53
2019-05-21T00:21:28.103Z,23.33
2019-05-21T00:22:04.579Z,26.10
2019-05-21T00:22:40.565Z,13.77
2019-05-21T00:23:16.434Z,14.93
2019-05-21T00:23:52.334Z,16.20
2019-05-21T00:24:28.367Z,18.17
2019-05-21T00:25:04.282Z,19.53
2019-05-21T00:25:40.916Z,14.77
2019-05-21T00:26:17.102Z,14.17
2019-05-21T00:26:52.949Z,13.53
2019-05-21T00:27:28.983Z,21.23
2019-05-21T00:28:40.412Z,13.83
2019-05-21T00:29:50.453Z,18.10
2019-05-21T00:31:00.697Z,17.23
2019-05-21T00:32:11.068Z,26.37
2019-05-21T00:33:21.398Z,15.97
2019-05-21T00:34:43.657Z,10.40
2019-05-21T00:35:49.620Z,9.10
2019-05-21T00:37:01.928Z,12.53
2019-05-21T00:38:11.995Z,19.13
2019-05-21T00:39:22.423Z,12.73
2019-05-21T00:40:32.787Z,17.13
2019-05-21T00:41:43.250Z,10.77
2019-05-21T00:42:28.906Z,11.57
2019-05-21T00:43:04.863Z,17.63
2019-05-21T00:43:52.864Z,17.00
2019-05-21T00:44:29.101Z,17.17
2019-05-21T00:45:05.358Z,15.53
2019-05-21T00:45:41.373Z,12.00
2019-05-21T00:46:17.275Z,17.20
2019-05-21T00:46:53.226Z,17.23
2019-05-21T00:47:29.084Z,12.93
2019-05-21T00:48:05.894Z,15.73
2019-05-21T00:48:41.954Z,11.80
2019-05-21T00:49:17.942Z,13.30
2019-05-21T00:49:53.925Z,11.33
2019-05-21T00:50:29.858Z,19.03
2019-05-21T00:51:05.791Z,14.10
2019-05-21T00:51:41.790Z,12.77
2019-05-21T00:52:17.703Z,32.83
2019-05-21T00:52:53.590Z,19.73
2019-05-21T00:53:29.598Z,14.60
2019-05-21T00:54:05.491Z,15.10
2019-05-21T00:54:41.368Z,15.63
2019-05-21T00:55:17.257Z,27.90
2019-05-21T00:55:53.276Z,21.83
2019-05-21T00:56:29.182Z,20.97
2019-05-21T00:57:05.058Z,16.80
2019-05-21T00:57:40.959Z,17.10
2019-05-21T00:58:16.997Z,20.67
2019-05-21T00:58:52.921Z,18.47
2019-05-21T00:59:28.887Z,14.13
2019-05-21T01:00:04.947Z,13.93
2019-05-21T01:00:40.821Z,17.97
2019-05-21T01:01:16.667Z,17.63
2019-05-21T01:01:52.717Z,22.30
2019-05-21T01:02:28.711Z,17.80
2019-05-21T01:03:04.707Z,16.20
2019-05-21T01:03:43.277Z,21.83
2019-05-21T01:04:18.380Z,23.73
2019-05-21T01:05:00.732Z,24.53
2019-05-21T01:05:32.105Z,23.90
2019-05-21T01:06:08.155Z,31.90
2019-05-21T01:06:44.341Z,21.47
2019-05-21T01:07:20.285Z,28.27
2019-05-21T01:07:56.203Z,21.80
2019-05-21T01:08:32.109Z,18.30
2019-05-21T01:09:08.460Z,21.53
2019-05-21T01:09:44.312Z,19.00
2019-05-21T01:10:20.187Z,21.63
2019-05-21T01:10:56.068Z,23.90
2019-05-21T01:11:31.947Z,16.57
2019-05-21T01:12:07.824Z,17.17
2019-05-21T01:12:43.719Z,17.60
2019-05-21T01:13:19.720Z,20.67
2019-05-21T01:13:55.611Z,19.80
2019-05-21T01:14:31.535Z,23.53
2019-05-21T01:15:07.476Z,17.83
2019-05-21T01:15:43.322Z,21.57
2019-05-21T01:16:19.194Z,18.93
2019-05-21T01:16:55.122Z,26.30
2019-05-21T01:17:31.755Z,19.30
2019-05-21T01:18:07.610Z,35.40
2019-05-21T01:18:43.756Z,19.70
2019-05-21T01:19:19.621Z,20.93
2019-05-21T01:19:55.534Z,19.93
2019-05-21T01:20:31.466Z,25.63
2019-05-21T01:21:07.997Z,24.57
2019-05-21T01:21:43.861Z,32.63
2019-05-21T01:22:19.832Z,19.97
2019-05-21T01:22:55.755Z,21.83
2019-05-21T01:23:31.718Z,26.33
2019-05-21T01:24:07.780Z,32.00
2019-05-21T01:24:43.679Z,27.60
2019-05-21T01:25:21.134Z,22.27
2019-05-21T01:25:57.103Z,28.07
2019-05-21T01:26:33.078Z,29.13
2019-05-21T01:27:08.963Z,29.83
2019-05-21T01:27:44.867Z,21.90
2019-05-21T01:28:20.743Z,23.33
2019-05-21T01:28:56.683Z,21.63
2019-05-21T01:29:32.617Z,25.37
2019-05-21T01:30:08.876Z,20.90
2019-05-21T01:30:44.743Z,27.10
2019-05-21T01:31:20.782Z,29.57
2019-05-21T01:31:56.679Z,29.50
2019-05-21T01:32:32.773Z,23.37
2019-05-21T01:33:08.811Z,32.03
2019-05-21T01:33:44.683Z,28.13
2019-05-21T01:34:20.743Z,27.60
2019-05-21T01:34:56.585Z,21.43
2019-05-21T01:35:32.490Z,29.00
2019-05-21T01:36:08.431Z,30.57
2019-05-21T01:36:44.316Z,21.23
2019-05-21T01:37:20.215Z,27.87
2019-05-21T01:37:56.161Z,29.43
2019-05-21T01:38:32.142Z,26.87
2019-05-21T01:39:08.756Z,27.30
2019-05-21T01:39:44.993Z,27.40
2019-05-21T01:40:21.548Z,27.33
2019-05-21T01:40:57.585Z,35.63
2019-05-21T01:41:33.707Z,33.03
2019-05-21T01:42:09.783Z,28.53
2019-05-21T01:42:45.650Z,31.63
2019-05-21T01:43:21.568Z,24.40
2019-05-21T01:43:57.410Z,24.70
2019-05-21T01:44:33.274Z,24.27
2019-05-21T01:45:09.303Z,28.63
2019-05-21T01:45:45.142Z,33.23
2019-05-21T01:46:21.047Z,26.80
2019-05-21T01:46:56.937Z,24.23
2019-05-21T01:47:32.945Z,35.50
2019-05-21T01:48:08.824Z,24.97
2019-05-21T01:48:44.743Z,23.30
2019-05-21T01:49:20.639Z,18.73
2019-05-21T01:49:56.520Z,26.00
2019-05-21T01:50:32.431Z,34.77
2019-05-21T01:51:08.316Z,24.70
2019-05-21T01:51:44.364Z,21.37
2019-05-21T01:52:20.275Z,21.83
2019-05-21T01:52:56.447Z,21.10
2019-05-21T01:53:32.352Z,17.27
2019-05-21T01:54:08.330Z,19.17
2019-05-21T01:54:44.197Z,20.70
2019-05-21T01:55:20.082Z,21.20
2019-05-21T01:55:56.018Z,23.33
2019-05-21T01:56:31.943Z,20.63
2019-05-21T01:57:07.965Z,21.33
2019-05-21T01:57:43.920Z,34.90
2019-05-21T01:58:19.810Z,18.40
2019-05-21T01:58:55.833Z,18.00
2019-05-21T01:59:31.866Z,22.87
2019-05-21T02:00:07.982Z,22.37
2019-05-21T02:00:44.127Z,18.50
2019-05-21T02:01:20.134Z,20.63
2019-05-21T02:01:56.250Z,21.10
2019-05-21T02:02:32.205Z,20.30
2019-05-21T02:03:08.147Z,16.87
2019-05-21T02:03:44.058Z,26.50
2019-05-21T02:04:20.100Z,26.37
2019-05-21T02:04:55.986Z,22.13
2019-05-21T02:05:33.522Z,26.53
2019-05-21T02:06:09.958Z,24.43
2019-05-21T02:06:49.202Z,18.40
2019-05-21T02:07:23.983Z,22.00
2019-05-21T02:08:00.576Z,25.23
2019-05-21T02:08:37.059Z,17.63
2019-05-21T02:09:13.903Z,21.53
2019-05-21T02:09:59.068Z,23.87
2019-05-21T02:10:35.861Z,18.00
2019-05-21T02:11:12.181Z,20.03
2019-05-21T02:11:48.474Z,21.23
2019-05-21T02:12:25.263Z,20.60
2019-05-21T02:13:01.805Z,19.67
2019-05-21T02:13:41.004Z,20.33
2019-05-21T02:14:17.312Z,22.30
2019-05-21T02:14:53.655Z,17.13
2019-05-21T02:15:30.101Z,21.70
2019-05-21T02:16:06.596Z,26.07
2019-05-21T02:16:43.344Z,23.53
2019-05-21T02:17:20.170Z,22.07
2019-05-21T02:17:56.448Z,20.27
2019-05-21T02:18:32.852Z,26.17
2019-05-21T02:19:09.441Z,24.50
2019-05-21T02:19:46.101Z,18.87
2019-05-21T02:20:22.368Z,24.43
2019-05-21T02:20:58.828Z,36.53
2019-05-21T02:21:35.482Z,21.97
2019-05-21T02:22:12.169Z,21.13
2019-05-21T02:22:48.869Z,29.73
2019-05-21T02:23:25.766Z,32.00
2019-05-21T02:24:02.462Z,22.37
2019-05-21T02:24:39.184Z,23.67
2019-05-21T02:25:15.647Z,23.67
2019-05-21T02:25:52.278Z,22.70
2019-05-21T02:26:28.972Z,23.53
2019-05-21T02:27:05.542Z,24.47
2019-05-21T02:27:43.321Z,24.57
2019-05-21T02:28:19.478Z,22.67
2019-05-21T02:28:56.071Z,21.23
2019-05-21T02:29:32.882Z,18.73
2019-05-21T02:30:10.300Z,18.63
2019-05-21T02:30:46.307Z,12.53
2019-05-21T02:31:22.157Z,16.40
2019-05-21T02:31:58.056Z,19.60
2019-05-21T02:32:34.031Z,17.67
2019-05-21T02:33:09.941Z,21.57
2019-05-21T02:33:45.932Z,18.63
2019-05-21T02:34:21.796Z,13.60
2019-05-21T02:34:57.678Z,12.73
2019-05-21T02:35:51.068Z,12.37
2019-05-21T02:36:11.372Z,10.83
2019-05-21T02:36:47.250Z,11.70
2019-05-21T02:37:23.227Z,13.83
2019-05-21T02:37:59.147Z,20.63
2019-05-21T02:38:35.078Z,11.60
2019-05-21T02:39:11.091Z,10.97
2019-05-21T02:39:46.957Z,17.90
2019-05-21T02:40:23.530Z,12.53
2019-05-21T02:40:59.425Z,19.30
2019-05-21T02:41:35.504Z,17.87
2019-05-21T02:42:12.126Z,17.80
2019-05-21T02:42:49.047Z,14.30
2019-05-21T02:43:24.976Z,16.87
2019-05-21T02:44:01.413Z,12.90
2019-05-21T02:44:37.763Z,14.43
2019-05-21T02:45:15.263Z,12.20
2019-05-21T02:45:51.146Z,22.17
2019-05-21T02:46:27.029Z,15.40
2019-05-21T02:47:02.879Z,13.60
2019-05-21T02:47:39.077Z,15.33
2019-05-21T02:48:15.015Z,22.07
2019-05-21T02:48:50.914Z,20.83
2019-05-21T02:49:26.808Z,16.27
2019-05-21T02:50:02.717Z,14.70
2019-05-21T02:50:38.604Z,19.67
2019-05-21T02:51:15.072Z,15.50
2019-05-21T02:51:51.212Z,17.63
2019-05-21T02:52:27.126Z,18.40
2019-05-21T02:53:03.046Z,21.83
2019-05-21T02:53:38.953Z,13.90
2019-05-21T02:54:15.621Z,15.50
2019-05-21T02:54:51.699Z,21.93
2019-05-21T02:55:27.589Z,16.73
2019-05-21T02:56:03.591Z,15.97
2019-05-21T02:56:39.502Z,18.93
2019-05-21T02:57:15.394Z,16.60
2019-05-21T02:57:51.222Z,11.90
2019-05-21T02:58:27.363Z,20.30
2019-05-21T02:59:03.261Z,16.53
2019-05-21T02:59:40.044Z,17.03
2019-05-21T03:00:38.236Z,18.57
2019-05-21T03:01:30.327Z,17.43
2019-05-21T03:02:13.299Z,13.03
2019-05-21T03:02:49.427Z,17.43
2019-05-21T03:03:27.447Z,11.67
2019-05-21T03:04:03.352Z,19.87
2019-05-21T03:04:39.235Z,11.73
2019-05-21T03:05:15.265Z,12.13
2019-05-21T03:05:51.312Z,13.00
2019-05-21T03:06:27.199Z,15.60
2019-05-21T03:07:18.298Z,14.30
2019-05-21T03:07:54.444Z,16.43
2019-05-21T03:08:30.456Z,17.67
2019-05-21T03:09:07.321Z,18.13
2019-05-21T03:09:43.265Z,13.03
2019-05-21T03:10:19.114Z,26.63
2019-05-21T03:10:55.275Z,13.37
2019-05-21T03:11:31.117Z,13.77
2019-05-21T03:12:08.510Z,21.13
2019-05-21T03:12:44.412Z,20.67
2019-05-21T03:13:20.378Z,26.90
2019-05-21T03:13:56.446Z,22.40
2019-05-21T03:14:32.416Z,24.80
2019-05-21T03:15:08.346Z,19.50
2019-05-21T03:15:44.328Z,23.50
2019-05-21T03:16:20.588Z,25.87
2019-05-21T03:16:56.465Z,30.93
2019-05-21T03:17:32.344Z,23.90
2019-05-21T03:18:08.662Z,21.10
2019-05-21T03:18:44.611Z,24.60
2019-05-21T03:19:20.471Z,22.43
2019-05-21T03:19:56.348Z,27.07
2019-05-21T03:20:32.309Z,23.80
2019-05-21T03:21:08.286Z,18.20
2019-05-21T03:21:44.344Z,28.90
2019-05-21T03:22:20.253Z,26.17
2019-05-21T03:22:56.990Z,31.67
2019-05-21T03:23:32.915Z,26.07
2019-05-21T03:24:08.790Z,22.50
2019-05-21T03:24:44.783Z,32.57
2019-05-21T03:25:20.742Z,30.00
2019-05-21T03:25:56.858Z,27.13
2019-05-21T03:26:32.754Z,34.40
2019-05-21T03:27:08.698Z,28.60
2019-05-21T03:27:47.679Z,30.70
2019-05-21T03:28:23.647Z,28.03
2019-05-21T03:28:59.558Z,24.73
2019-05-21T03:29:35.505Z,30.13
2019-05-21T03:30:11.355Z,21.27
2019-05-21T03:30:47.385Z,23.90
2019-05-21T03:31:23.314Z,23.57
2019-05-21T03:31:59.217Z,20.27
2019-05-21T03:32:35.291Z,20.47
2019-05-21T03:33:11.313Z,27.43
2019-05-21T03:33:47.269Z,22.63
2019-05-21T03:34:23.169Z,20.13
2019-05-21T03:34:59.073Z,16.00
2019-05-21T03:35:35.055Z,14.93
2019-05-21T03:36:11.106Z,13.33
2019-05-21T03:36:47.114Z,19.13
2019-05-21T03:37:23.007Z,15.23
2019-05-21T03:37:59.137Z,14.40
2019-05-21T03:38:35.164Z,11.43
2019-05-21T03:39:11.073Z,13.23
2019-05-21T03:39:46.987Z,16.93
2019-05-21T03:40:22.892Z,14.00
2019-05-21T03:41:01.270Z,11.87
2019-05-21T03:41:37.976Z,11.37
2019-05-21T03:42:16.825Z,27.50
2019-05-21T03:42:52.724Z,12.57
2019-05-21T03:43:28.620Z,18.90
2019-05-21T03:44:04.549Z,16.67
2019-05-21T03:44:58.252Z,11.03
2019-05-21T03:45:18.385Z,12.40
2019-05-21T03:45:54.408Z,13.97
2019-05-21T03:46:30.277Z,11.27
2019-05-21T03:47:06.158Z,11.70
2019-05-21T03:47:42.068Z,12.57
2019-05-21T03:48:18.060Z,14.90
2019-05-21T03:48:53.951Z,13.03
2019-05-21T03:49:29.818Z,11.87
2019-05-21T03:50:05.873Z,14.03
2019-05-21T03:50:41.739Z,11.30
2019-05-21T03:51:17.658Z,12.30
2019-05-21T03:51:53.566Z,12.10
2019-05-21T03:52:29.457Z,11.83
2019-05-21T03:53:05.321Z,12.00
2019-05-21T03:53:41.219Z,9.53
2019-05-21T03:54:17.127Z,12.00
2019-05-21T03:54:53.008Z,13.73
2019-05-21T03:55:28.948Z,9.60
2019-05-21T03:56:04.844Z,16.80
2019-05-21T03:56:42.383Z,10.63
2019-05-21T03:57:18.237Z,7.90
2019-05-21T03:57:54.239Z,9.47
2019-05-21T03:58:30.092Z,10.07
2019-05-21T03:59:06.095Z,9.13
2019-05-21T03:59:41.982Z,13.00
2019-05-21T04:00:18.039Z,8.40
2019-05-21T04:00:54.037Z,15.30
2019-05-21T04:01:29.895Z,15.13
2019-05-21T04:02:08.536Z,9.60
2019-05-21T04:02:44.517Z,9.50
2019-05-21T04:03:20.405Z,9.17
2019-05-21T04:03:56.324Z,9.07
2019-05-21T04:04:32.302Z,8.40
2019-05-21T04:05:08.379Z,9.57
2019-05-21T04:05:44.283Z,8.80
2019-05-21T04:06:20.160Z,8.53
2019-05-21T04:06:56.022Z,13.50
2019-05-21T04:07:31.878Z,8.90
2019-05-21T04:08:07.899Z,7.70
2019-05-21T04:08:44.385Z,7.97
2019-05-21T04:09:20.312Z,10.93
2019-05-21T04:09:56.175Z,7.57
2019-05-21T04:10:32.052Z,9.47
2019-05-21T04:11:08.066Z,10.13
2019-05-21T04:11:45.447Z,7.40
2019-05-21T04:12:21.446Z,13.20
2019-05-21T04:13:09.943Z,8.80
2019-05-21T04:13:45.891Z,7.90
2019-05-21T04:14:34.080Z,8.43
2019-05-21T04:15:12.420Z,8.57
2019-05-21T04:16:07.132Z,13.77
2019-05-21T04:16:53.784Z,8.30
2019-05-21T04:17:48.539Z,7.70
2019-05-21T04:18:28.243Z,7.60
2019-05-21T04:19:10.541Z,14.53
2019-05-21T04:19:46.490Z,11.60
2019-05-21T04:20:22.489Z,9.70
2019-05-21T04:20:58.357Z,8.70
2019-05-21T04:21:34.208Z,14.27
2019-05-21T04:22:14.493Z,7.90
2019-05-21T04:22:55.863Z,7.60
2019-05-21T04:23:31.794Z,8.27
2019-05-21T04:24:09.003Z,8.40
2019-05-21T04:24:45.478Z,9.43
2019-05-21T04:25:21.764Z,9.50
2019-05-21T04:25:57.795Z,9.10
2019-05-21T04:26:33.683Z,8.67
2019-05-21T04:27:09.578Z,9.03
2019-05-21T04:27:45.440Z,9.53
2019-05-21T04:28:21.409Z,8.70
2019-05-21T04:28:57.380Z,7.63
2019-05-21T04:29:33.248Z,8.90
2019-05-21T04:30:11.380Z,9.93
2019-05-21T04:30:47.028Z,9.00
2019-05-21T04:31:22.921Z,13.63
2019-05-21T04:31:58.766Z,9.77
2019-05-21T04:32:34.695Z,11.80
2019-05-21T04:33:10.580Z,9.53
2019-05-21T04:33:46.497Z,10.20
2019-05-21T04:34:22.572Z,9.90
2019-05-21T04:34:58.420Z,9.47
2019-05-21T04:35:34.336Z,10.13
2019-05-21T04:36:10.289Z,10.40
2019-05-21T04:36:46.201Z,9.63
2019-05-21T04:37:22.111Z,9.77
2019-05-21T04:37:58.087Z,9.67
2019-05-21T04:38:33.960Z,9.40
2019-05-21T04:39:10.121Z,10.37
2019-05-21T04:39:46.212Z,10.87
2019-05-21T04:40:22.293Z,9.67
2019-05-21T04:40:58.156Z,10.53
2019-05-21T04:41:34.151Z,9.63
2019-05-21T04:42:10.037Z,10.20
2019-05-21T04:42:45.936Z,9.03
2019-05-21T04:43:21.838Z,9.13
2019-05-21T04:43:57.738Z,8.40
2019-05-21T04:44:33.604Z,9.23
2019-05-21T04:45:09.750Z,9.77
2019-05-21T04:45:45.670Z,9.87
2019-05-21T04:46:21.595Z,13.40
2019-05-21T04:46:57.471Z,8.93
2019-05-21T04:47:33.407Z,16.73
2019-05-21T04:48:09.342Z,9.20
2019-05-21T04:48:45.247Z,9.50
2019-05-21T04:49:22.935Z,9.03
2019-05-21T04:49:58.893Z,8.73
2019-05-21T04:50:34.839Z,10.00
2019-05-21T04:51:13.759Z,9.90
2019-05-21T04:51:48.378Z,10.17
2019-05-21T04:52:24.276Z,9.20
2019-05-21T04:53:00.195Z,8.80
2019-05-21T04:53:36.127Z,9.93
2019-05-21T04:54:11.969Z,13.73
2019-05-21T04:54:49.379Z,8.67
2019-05-21T04:55:25.266Z,9.07
2019-05-21T04:56:01.130Z,8.23
2019-05-21T04:56:37.305Z,8.50
2019-05-21T04:57:13.382Z,12.63
2019-05-21T04:57:50.549Z,8.30
2019-05-21T04:58:27.901Z,12.90
2019-05-21T04:59:03.842Z,9.77
2019-05-21T04:59:39.850Z,9.33
2019-05-21T05:00:15.968Z,8.33
2019-05-21T05:00:51.840Z,8.67
2019-05-21T05:01:27.712Z,9.63
2019-05-21T05:02:03.627Z,13.80
2019-05-21T05:02:42.454Z,10.17
2019-05-21T05:03:18.300Z,8.43
2019-05-21T05:03:54.264Z,11.00
2019-05-21T05:04:30.324Z,8.60
2019-05-21T05:05:06.813Z,9.13
2019-05-21T05:05:42.738Z,9.80
2019-05-21T05:06:18.700Z,9.67
2019-05-21T05:06:54.655Z,13.13
2019-05-21T05:07:30.571Z,8.50
2019-05-21T05:08:06.497Z,9.43
2019-05-21T05:08:42.418Z,8.83
2019-05-21T05:09:18.283Z,8.50
2019-05-21T05:09:54.149Z,9.77
2019-05-21T05:10:30.062Z,9.30
2019-05-21T05:11:05.956Z,9.17
2019-05-21T05:11:41.839Z,9.50
2019-05-21T05:12:17.755Z,9.07
2019-05-21T05:12:53.674Z,9.90
2019-05-21T05:13:29.670Z,16.47
2019-05-21T05:14:05.549Z,12.23
2019-05-21T05:14:41.879Z,9.17
2019-05-21T05:15:19.293Z,9.80
2019-05-21T05:15:55.289Z,9.33
2019-05-21T05:16:31.202Z,10.43
2019-05-21T05:17:07.057Z,11.07
2019-05-21T05:17:42.937Z,9.33
2019-05-21T05:18:18.861Z,8.80
2019-05-21T05:18:56.334Z,9.60
2019-05-21T05:19:32.254Z,12.17
2019-05-21T05:20:08.350Z,13.70
2019-05-21T05:20:46.043Z,9.97
2019-05-21T05:21:21.897Z,10.27
2019-05-21T05:21:57.808Z,9.50
2019-05-21T05:22:33.700Z,9.63
2019-05-21T05:23:09.576Z,10.00
2019-05-21T05:23:45.464Z,11.80
2019-05-21T05:24:21.323Z,10.23
2019-05-21T05:24:57.287Z,11.07
2019-05-21T05:25:33.199Z,10.13
2019-05-21T05:26:09.113Z,9.57
2019-05-21T05:26:45.037Z,10.20
2019-05-21T05:27:20.913Z,13.70
2019-05-21T05:27:56.784Z,12.17
2019-05-21T05:28:32.710Z,12.43
2019-05-21T05:29:08.909Z,17.63
2019-05-21T05:29:44.813Z,12.33
2019-05-21T05:30:20.688Z,18.27
2019-05-21T05:30:56.596Z,13.93
2019-05-21T05:31:32.490Z,12.53
2019-05-21T05:32:08.378Z,17.77
2019-05-21T05:32:44.363Z,12.60
2019-05-21T05:33:20.240Z,19.70
2019-05-21T05:33:56.141Z,13.00
2019-05-21T05:34:32.166Z,20.80
2019-05-21T05:35:08.136Z,15.07
2019-05-21T05:35:44.045Z,12.70
2019-05-21T05:36:20.112Z,13.13
2019-05-21T05:36:56.164Z,19.73
2019-05-21T05:37:43.282Z,12.37
2019-05-21T05:38:10.850Z,13.03
2019-05-21T05:38:47.575Z,12.93
2019-05-21T05:39:24.184Z,19.43
2019-05-21T05:40:00.718Z,16.73
2019-05-21T05:40:36.598Z,14.70
2019-05-21T05:41:12.502Z,12.57
2019-05-21T05:41:48.404Z,12.63
2019-05-21T05:42:24.282Z,18.30
2019-05-21T05:43:00.199Z,13.57
2019-05-21T05:43:36.138Z,17.10
2019-05-21T05:44:12.101Z,17.53
2019-05-21T05:44:48.143Z,12.90
2019-05-21T05:45:24.028Z,16.57
2019-05-21T05:46:00.005Z,15.53
2019-05-21T05:46:35.946Z,17.70
2019-05-21T05:47:11.985Z,16.33
2019-05-21T05:47:47.861Z,17.10
2019-05-21T05:48:23.899Z,17.13
2019-05-21T05:49:08.631Z,17.53
2019-05-21T05:49:50.592Z,17.50
2019-05-21T05:50:29.597Z,12.90
2019-05-21T05:51:06.479Z,12.33
2019-05-21T05:51:44.239Z,16.20
2019-05-21T05:52:20.636Z,14.60
2019-05-21T05:52:56.781Z,12.83
2019-05-21T05:54:00.707Z,16.97
2019-05-21T05:54:36.817Z,10.43
2019-05-21T05:55:12.825Z,14.30
2019-05-21T05:55:48.808Z,10.20
2019-05-21T05:56:25.053Z,14.20
2019-05-21T05:57:00.938Z,12.50
2019-05-21T05:57:36.922Z,10.93
2019-05-21T05:58:13.068Z,11.27
2019-05-21T05:58:48.952Z,10.73
2019-05-21T05:59:24.966Z,13.40
2019-05-21T06:00:01.000Z,11.00
2019-05-21T06:00:38.477Z,12.10
2019-05-21T06:01:14.623Z,12.50
2019-05-21T06:01:50.542Z,9.50
2019-05-21T06:02:26.524Z,10.17
2019-05-21T06:03:02.480Z,10.90
2019-05-21T06:03:42.318Z,9.90
2019-05-21T06:04:18.160Z,14.93
2019-05-21T06:04:54.035Z,11.07
2019-05-21T06:05:29.887Z,9.87
2019-05-21T06:06:05.971Z,10.00
2019-05-21T06:06:41.882Z,10.97
2019-05-21T06:07:17.886Z,15.10
2019-05-21T06:07:59.800Z,12.60
2019-05-21T06:08:32.538Z,10.47
2019-05-21T06:09:08.939Z,9.27
2019-05-21T06:09:44.833Z,8.87
2019-05-21T06:10:21.237Z,8.97
2019-05-21T06:10:57.236Z,10.20
2019-05-21T06:11:33.102Z,9.47
2019-05-21T06:12:09.163Z,8.97
2019-05-21T06:12:45.138Z,9.97
2019-05-21T06:13:21.022Z,8.93
2019-05-21T06:13:56.904Z,8.30
2019-05-21T06:14:32.806Z,8.80
2019-05-21T06:15:08.813Z,9.63
2019-05-21T06:15:44.879Z,9.13
2019-05-21T06:16:21.416Z,8.67
2019-05-21T06:16:57.316Z,9.87
2019-05-21T06:17:33.254Z,9.50
2019-05-21T06:18:09.368Z,9.47
2019-05-21T06:18:45.244Z,9.97
2019-05-21T06:19:21.123Z,14.47
2019-05-21T06:19:57.248Z,9.07
2019-05-21T06:20:33.174Z,11.90
2019-05-21T06:21:09.175Z,9.43
2019-05-21T06:21:45.072Z,10.73
2019-05-21T06:22:20.931Z,12.77
2019-05-21T06:22:56.830Z,10.97
2019-05-21T06:23:32.731Z,11.80
2019-05-21T06:24:08.697Z,8.20
2019-05-21T06:24:44.547Z,8.40
2019-05-21T06:25:20.901Z,9.23
2019-05-21T06:25:57.285Z,9.30
2019-05-21T06:26:33.356Z,10.67
2019-05-21T06:27:09.196Z,9.53
2019-05-21T06:27:45.089Z,7.70
2019-05-21T06:28:20.946Z,10.80
2019-05-21T06:28:56.828Z,12.70
2019-05-21T06:29:33.378Z,8.87
2019-05-21T06:30:09.352Z,10.03
2019-05-21T06:30:45.230Z,12.17
2019-05-21T06:31:21.127Z,12.97
2019-05-21T06:31:56.983Z,8.50
2019-05-21T06:32:32.867Z,7.53
2019-05-21T06:33:08.884Z,15.80
2019-05-21T06:33:44.773Z,7.93
2019-05-21T06:34:21.202Z,10.33
2019-05-21T06:34:57.879Z,10.83
2019-05-21T06:35:33.775Z,13.40
2019-05-21T06:36:09.643Z,8.37
2019-05-21T06:36:45.610Z,7.27
2019-05-21T06:37:21.484Z,10.20
2019-05-21T06:37:57.647Z,7.77
2019-05-21T06:38:33.681Z,11.17
2019-05-21T06:39:09.961Z,10.53
2019-05-21T06:39:45.798Z,7.37
2019-05-21T06:40:21.895Z,10.50
2019-05-21T06:40:57.794Z,7.17
2019-05-21T06:41:33.678Z,6.87
2019-05-21T06:42:09.605Z,7.10
2019-05-21T06:42:45.582Z,7.70
2019-05-21T06:43:21.500Z,8.03
2019-05-21T06:43:57.434Z,9.40
2019-05-21T06:44:33.347Z,7.00
2019-05-21T06:45:09.639Z,7.67
2019-05-21T06:45:45.512Z,7.83
2019-05-21T06:46:21.352Z,7.77
2019-05-21T06:46:57.267Z,9.87
2019-05-21T06:47:33.155Z,12.77
2019-05-21T06:48:09.600Z,9.10
2019-05-21T06:48:45.569Z,9.60
2019-05-21T06:49:21.958Z,10.40
2019-05-21T06:49:57.830Z,9.30
2019-05-21T06:50:37.274Z,21.50
2019-05-21T06:51:11.621Z,22.83
2019-05-21T06:51:47.449Z,12.77
2019-05-21T06:52:23.401Z,14.83
2019-05-21T06:52:59.265Z,16.63
2019-05-21T06:53:35.248Z,11.87
2019-05-21T06:54:11.117Z,10.87
2019-05-21T06:54:46.998Z,15.13
2019-05-21T06:55:22.954Z,12.37
2019-05-21T06:55:58.820Z,17.53
2019-05-21T06:56:34.651Z,21.90
2019-05-21T06:57:10.602Z,12.90
2019-05-21T06:57:46.564Z,22.40
2019-05-21T06:58:22.456Z,21.20
2019-05-21T06:58:58.404Z,17.13
2019-05-21T06:59:34.312Z,25.97
2019-05-21T07:00:11.779Z,22.70
2019-05-21T07:00:47.924Z,16.93
2019-05-21T07:01:28.802Z,22.87
2019-05-21T07:02:01.613Z,27.10
2019-05-21T07:02:37.681Z,21.43
2019-05-21T07:03:13.615Z,22.37
2019-05-21T07:03:49.552Z,19.13
2019-05-21T07:04:25.426Z,22.47
2019-05-21T07:05:01.353Z,17.40
2019-05-21T07:05:37.546Z,16.27
2019-05-21T07:06:13.420Z,17.70
2019-05-21T07:06:49.382Z,16.60
2019-05-21T07:07:25.235Z,22.03
2019-05-21T07:08:01.141Z,12.33
2019-05-21T07:08:37.063Z,14.33
2019-05-21T07:09:13.042Z,16.60
2019-05-21T07:09:48.997Z,20.40
2019-05-21T07:10:25.316Z,14.13
2019-05-21T07:11:01.575Z,15.67
2019-05-21T07:11:37.431Z,15.00
2019-05-21T07:12:13.524Z,14.70
2019-05-21T07:12:49.676Z,10.23
2019-05-21T07:13:26.139Z,13.17
2019-05-21T07:14:02.010Z,9.37
2019-05-21T07:14:38.601Z,9.10
2019-05-21T07:15:14.640Z,13.03
2019-05-21T07:15:50.542Z,11.30
2019-05-21T07:16:26.575Z,12.33
2019-05-21T07:17:02.587Z,16.80
2019-05-21T07:17:38.915Z,11.23
2019-05-21T07:18:14.844Z,9.17
2019-05-21T07:18:50.710Z,10.63
2019-05-21T07:19:26.648Z,9.60
2019-05-21T07:20:02.679Z,11.43
2019-05-21T07:20:38.781Z,10.90
2019-05-21T07:21:14.775Z,9.83
2019-05-21T07:21:50.675Z,11.53
2019-05-21T07:22:28.193Z,10.27
2019-05-21T07:23:04.370Z,11.53
2019-05-21T07:23:40.372Z,12.33
2019-05-21T07:24:16.243Z,15.33
2019-05-21T07:24:52.099Z,9.90
2019-05-21T07:25:28.272Z,11.97
2019-05-21T07:26:04.434Z,10.47
2019-05-21T07:26:40.438Z,10.77
2019-05-21T07:27:16.300Z,10.20
2019-05-21T07:27:52.208Z,12.43
2019-05-21T07:28:28.137Z,12.23
2019-05-21T07:29:04.077Z,10.63
2019-05-21T07:29:39.994Z,10.63
2019-05-21T07:30:16.219Z,9.43
2019-05-21T07:30:52.098Z,9.30
2019-05-21T07:31:28.092Z,10.97
2019-05-21T07:32:04.036Z,12.00
2019-05-21T07:32:41.555Z,9.20
2019-05-21T07:33:17.506Z,10.33
2019-05-21T07:33:53.437Z,10.37
2019-05-21T07:34:31.006Z,9.50
2019-05-21T07:35:07.431Z,10.67
2019-05-21T07:35:43.334Z,14.37
2019-05-21T07:36:19.265Z,12.60
2019-05-21T07:36:55.131Z,8.70
2019-05-21T07:37:31.017Z,9.90
2019-05-21T07:38:06.886Z,8.47
2019-05-21T07:38:52.528Z,8.93
2019-05-21T07:39:20.643Z,8.73
2019-05-21T07:39:56.507Z,8.17
2019-05-21T07:40:32.463Z,8.83
2019-05-21T07:41:08.522Z,8.80
2019-05-21T07:41:44.371Z,9.43
2019-05-21T07:42:20.293Z,8.53
2019-05-21T07:42:56.197Z,9.20
2019-05-21T07:43:32.118Z,7.97
2019-05-21T07:44:08.083Z,10.07
2019-05-21T07:44:43.989Z,10.07
2019-05-21T07:45:19.847Z,7.80
2019-05-21T07:45:55.699Z,11.37
2019-05-21T07:46:31.801Z,8.83
2019-05-21T07:47:07.776Z,9.00
2019-05-21T07:47:43.633Z,9.77
2019-05-21T07:48:19.538Z,8.97
2019-05-21T07:48:55.607Z,8.20
2019-05-21T07:49:31.608Z,9.10
2019-05-21T07:50:08.072Z,10.80
2019-05-21T07:50:43.949Z,8.50
2019-05-21T07:51:19.904Z,9.57
2019-05-21T07:51:56.040Z,9.23
2019-05-21T07:52:32.074Z,10.03
2019-05-21T07:53:08.088Z,9.50
2019-05-21T07:53:43.988Z,9.77
2019-05-21T07:54:19.879Z,12.27
2019-05-21T07:54:55.760Z,9.00
2019-05-21T07:55:31.632Z,15.17
2019-05-21T07:56:07.566Z,9.43
2019-05-21T07:56:43.563Z,8.97
2019-05-21T07:57:19.547Z,8.40
2019-05-21T07:57:55.597Z,8.67
2019-05-21T07:58:31.483Z,9.47
2019-05-21T07:59:07.566Z,9.80
2019-05-21T07:59:43.574Z,11.63